sensor_id;sensor_type;location;lat;lon;timestamp;pressure;altitude;pressure_sealevel;temperature;humidity
64602;BME280;51013;42.630;23.192;2022-10-04T00:01:05;92613.88;;;10.00;77.97
64602;BME280;51013;42.630;23.192;2022-10-04T00:03:38;92619.13;;;10.00;79.03
64602;BME280;51013;42.630;23.192;2022-10-04T00:06:13;92476.16;;;9.02;79.81
64602;BME280;51013;42.630;23.192;2022-10-04T00:08:47;92622.41;;;10.09;78.89
64602;BME280;51013;42.630;23.192;2022-10-04T00:11:19;92602.91;;;9.86;78.43
64602;BME280;51013;42.630;23.192;2022-10-04T00:13:52;92602.53;;;9.75;78.23
64602;BME280;51013;42.630;23.192;2022-10-04T00:16:22;92621.59;;;9.84;78.61
64602;BME280;51013;42.630;23.192;2022-10-04T00:19:01;92624.50;;;9.70;77.83
64602;BME280;51013;42.630;23.192;2022-10-04T00:24:34;92555.53;;;9.36;80.94
64602;BME280;51013;42.630;23.192;2022-10-04T00:27:20;92615.91;;;9.82;81.74
64602;BME280;51013;42.630;23.192;2022-10-04T00:29:50;92524.88;;;9.16;82.59
64602;BME280;51013;42.630;23.192;2022-10-04T00:32:46;92600.53;;;9.59;82.71
64602;BME280;51013;42.630;23.192;2022-10-04T00:35:47;92610.97;;;9.80;82.69
64602;BME280;51013;42.630;23.192;2022-10-04T00:38:16;92579.03;;;9.66;82.53
64602;BME280;51013;42.630;23.192;2022-10-04T00:40:56;92577.06;;;9.63;81.27
64602;BME280;51013;42.630;23.192;2022-10-04T00:43:31;92602.25;;;9.89;81.39
64602;BME280;51013;42.630;23.192;2022-10-04T00:46:02;92609.03;;;9.90;81.17
64602;BME280;51013;42.630;23.192;2022-10-04T00:48:42;92601.69;;;9.95;81.53
64602;BME280;51013;42.630;23.192;2022-10-04T00:51:17;92594.25;;;9.97;79.09
64602;BME280;51013;42.630;23.192;2022-10-04T00:53:53;92602.69;;;9.91;79.52
64602;BME280;51013;42.630;23.192;2022-10-04T00:56:28;92562.28;;;9.58;79.80
64602;BME280;51013;42.630;23.192;2022-10-04T00:59:10;92521.69;;;9.31;80.84
64602;BME280;51013;42.630;23.192;2022-10-04T01:01:42;92560.75;;;9.57;80.85
64602;BME280;51013;42.630;23.192;2022-10-04T01:04:26;92455.47;;;8.89;78.87
64602;BME280;51013;42.630;23.192;2022-10-04T01:06:56;92302.19;;;7.82;80.27
64602;BME280;51013;42.630;23.192;2022-10-04T01:09:24;92595.03;;;9.52;78.60
64602;BME280;51013;42.630;23.192;2022-10-04T01:12:00;92583.47;;;9.53;78.22
64602;BME280;51013;42.630;23.192;2022-10-04T01:14:31;92553.44;;;9.30;78.34
64602;BME280;51013;42.630;23.192;2022-10-04T01:17:04;92506.28;;;8.96;80.52
64602;BME280;51013;42.630;23.192;2022-10-04T01:19:32;92566.38;;;9.35;79.64
64602;BME280;51013;42.630;23.192;2022-10-04T01:22:13;92580.91;;;9.45;80.56
64602;BME280;51013;42.630;23.192;2022-10-04T01:24:45;92500.38;;;8.99;80.71
64602;BME280;51013;42.630;23.192;2022-10-04T01:27:39;92567.59;;;9.50;80.79
64602;BME280;51013;42.630;23.192;2022-10-04T01:30:09;92571.28;;;9.36;80.63
64602;BME280;51013;42.630;23.192;2022-10-04T01:32:37;92580.78;;;9.29;81.93
64602;BME280;51013;42.630;23.192;2022-10-04T01:35:07;92552.88;;;9.24;80.67
64602;BME280;51013;42.630;23.192;2022-10-04T01:37:36;92523.59;;;8.89;81.62
64602;BME280;51013;42.630;23.192;2022-10-04T01:40:07;92568.28;;;9.26;81.67
64602;BME280;51013;42.630;23.192;2022-10-04T01:42:38;92437.28;;;8.29;82.58
64602;BME280;51013;42.630;23.192;2022-10-04T01:45:14;92460.59;;;8.43;82.56
64602;BME280;51013;42.630;23.192;2022-10-04T01:47:47;92566.16;;;9.07;83.00
64602;BME280;51013;42.630;23.192;2022-10-04T01:50:19;92581.41;;;9.05;82.89
64602;BME280;51013;42.630;23.192;2022-10-04T01:52:54;92541.47;;;8.87;82.10
64602;BME280;51013;42.630;23.192;2022-10-04T01:55:28;92531.97;;;8.82;83.39
64602;BME280;51013;42.630;23.192;2022-10-04T01:57:59;92554.88;;;8.85;83.35
64602;BME280;51013;42.630;23.192;2022-10-04T02:00:27;92537.84;;;8.79;83.85
64602;BME280;51013;42.630;23.192;2022-10-04T02:02:57;92538.66;;;8.92;84.31
64602;BME280;51013;42.630;23.192;2022-10-04T02:05:30;92555.47;;;8.91;83.38
64602;BME280;51013;42.630;23.192;2022-10-04T02:08:02;92576.22;;;8.96;82.15
64602;BME280;51013;42.630;23.192;2022-10-04T02:10:32;92580.53;;;9.00;83.87
64602;BME280;51013;42.630;23.192;2022-10-04T02:13:07;92528.13;;;8.58;84.20
64602;BME280;51013;42.630;23.192;2022-10-04T02:15:36;92570.22;;;8.95;84.35
64602;BME280;51013;42.630;23.192;2022-10-04T02:18:09;92585.50;;;8.93;84.82
64602;BME280;51013;42.630;23.192;2022-10-04T02:20:38;92579.19;;;8.94;85.36
64602;BME280;51013;42.630;23.192;2022-10-04T02:23:06;92570.44;;;8.90;85.12
64602;BME280;51013;42.630;23.192;2022-10-04T02:25:37;92521.47;;;8.61;83.44
64602;BME280;51013;42.630;23.192;2022-10-04T02:28:09;92522.31;;;8.53;84.30
64602;BME280;51013;42.630;23.192;2022-10-04T02:30:38;92499.31;;;8.29;84.43
64602;BME280;51013;42.630;23.192;2022-10-04T02:33:07;92584.44;;;8.94;84.90
64602;BME280;51013;42.630;23.192;2022-10-04T02:35:35;92566.53;;;8.96;84.72
64602;BME280;51013;42.630;23.192;2022-10-04T02:38:08;92513.31;;;8.33;85.13
64602;BME280;51013;42.630;23.192;2022-10-04T02:40:45;92592.47;;;8.89;85.05
64602;BME280;51013;42.630;23.192;2022-10-04T02:43:17;92583.19;;;8.92;85.17
64602;BME280;51013;42.630;23.192;2022-10-04T02:45:49;92544.28;;;8.60;84.99
64602;BME280;51013;42.630;23.192;2022-10-04T02:48:36;92586.16;;;8.90;85.31
64602;BME280;51013;42.630;23.192;2022-10-04T02:51:16;92448.84;;;7.77;86.37
64602;BME280;51013;42.630;23.192;2022-10-04T02:53:52;92479.13;;;8.08;86.28
64602;BME280;51013;42.630;23.192;2022-10-04T02:56:24;92575.41;;;8.62;86.32
64602;BME280;51013;42.630;23.192;2022-10-04T02:58:52;92588.59;;;8.66;86.74
64602;BME280;51013;42.630;23.192;2022-10-04T03:01:27;92572.81;;;8.53;86.38
64602;BME280;51013;42.630;23.192;2022-10-04T03:04:03;92605.03;;;8.75;86.67
64602;BME280;51013;42.630;23.192;2022-10-04T03:06:31;92546.88;;;8.31;86.57
64602;BME280;51013;42.630;23.192;2022-10-04T03:09:01;92433.72;;;7.53;86.84
64602;BME280;51013;42.630;23.192;2022-10-04T03:11:34;92598.59;;;8.72;86.67
64602;BME280;51013;42.630;23.192;2022-10-04T03:14:06;92508.19;;;7.86;86.66
64602;BME280;51013;42.630;23.192;2022-10-04T03:16:37;92611.41;;;8.65;86.77
64602;BME280;51013;42.630;23.192;2022-10-04T03:19:07;92444.19;;;7.53;87.19
64602;BME280;51013;42.630;23.192;2022-10-04T03:21:37;92614.94;;;8.69;86.89
64602;BME280;51013;42.630;23.192;2022-10-04T03:24:05;92566.91;;;8.35;86.91
64602;BME280;51013;42.630;23.192;2022-10-04T03:26:42;92551.81;;;8.32;86.91
64602;BME280;51013;42.630;23.192;2022-10-04T03:29:12;92612.63;;;8.68;86.34
64602;BME280;51013;42.630;23.192;2022-10-04T03:31:40;92615.13;;;8.64;87.13
64602;BME280;51013;42.630;23.192;2022-10-04T03:34:13;92618.97;;;8.67;87.42
64602;BME280;51013;42.630;23.192;2022-10-04T03:36:41;92611.25;;;8.70;87.59
64602;BME280;51013;42.630;23.192;2022-10-04T03:39:10;92572.59;;;8.37;87.24
64602;BME280;51013;42.630;23.192;2022-10-04T03:41:40;92517.88;;;7.85;87.91
64602;BME280;51013;42.630;23.192;2022-10-04T03:44:13;92625.63;;;8.55;87.81
64602;BME280;51013;42.630;23.192;2022-10-04T03:46:42;92546.41;;;8.08;88.93
64602;BME280;51013;42.630;23.192;2022-10-04T03:49:11;92490.53;;;7.74;88.64
64602;BME280;51013;42.630;23.192;2022-10-04T03:51:44;92626.50;;;8.68;90.83
64602;BME280;51013;42.630;23.192;2022-10-04T03:54:16;92620.00;;;8.74;88.90
64602;BME280;51013;42.630;23.192;2022-10-04T03:56:46;92626.00;;;8.75;88.32
64602;BME280;51013;42.630;23.192;2022-10-04T03:59:15;92559.38;;;8.25;87.66
64602;BME280;51013;42.630;23.192;2022-10-04T04:01:45;92551.88;;;8.23;88.06
64602;BME280;51013;42.630;23.192;2022-10-04T04:04:20;92559.34;;;8.34;88.63
64602;BME280;51013;42.630;23.192;2022-10-04T04:06:55;92632.78;;;8.76;88.24
64602;BME280;51013;42.630;23.192;2022-10-04T04:09:34;92632.31;;;8.74;88.25
64602;BME280;51013;42.630;23.192;2022-10-04T04:12:10;92632.13;;;8.79;87.67
64602;BME280;51013;42.630;23.192;2022-10-04T04:14:41;92634.13;;;8.82;87.63
64602;BME280;51013;42.630;23.192;2022-10-04T04:17:37;92642.31;;;8.80;87.85
64602;BME280;51013;42.630;23.192;2022-10-04T04:20:16;92646.44;;;8.81;87.65
64602;BME280;51013;42.630;23.192;2022-10-04T04:22:57;92642.22;;;8.68;88.16
64602;BME280;51013;42.630;23.192;2022-10-04T04:25:26;92651.91;;;8.68;88.24
64602;BME280;51013;42.630;23.192;2022-10-04T04:28:04;92659.00;;;8.67;88.16
64602;BME280;51013;42.630;23.192;2022-10-04T04:30:35;92548.63;;;7.88;88.31
64602;BME280;51013;42.630;23.192;2022-10-04T04:33:08;92651.66;;;8.60;88.61
64602;BME280;51013;42.630;23.192;2022-10-04T04:35:37;92651.38;;;8.53;87.39
64602;BME280;51013;42.630;23.192;2022-10-04T04:38:13;92646.31;;;8.48;87.68
64602;BME280;51013;42.630;23.192;2022-10-04T04:40:42;92648.28;;;8.51;87.51
64602;BME280;51013;42.630;23.192;2022-10-04T04:43:16;92651.25;;;8.50;87.11
64602;BME280;51013;42.630;23.192;2022-10-04T04:45:44;92591.03;;;8.02;86.87
64602;BME280;51013;42.630;23.192;2022-10-04T04:48:14;92658.50;;;8.44;87.24
64602;BME280;51013;42.630;23.192;2022-10-04T04:50:47;92656.81;;;8.39;87.28
64602;BME280;51013;42.630;23.192;2022-10-04T04:53:18;92665.25;;;8.45;87.60
64602;BME280;51013;42.630;23.192;2022-10-04T04:55:50;92517.56;;;7.39;86.98
64602;BME280;51013;42.630;23.192;2022-10-04T04:58:22;92593.59;;;7.81;88.17
64602;BME280;51013;42.630;23.192;2022-10-04T05:00:54;92674.84;;;8.32;87.43
64602;BME280;51013;42.630;23.192;2022-10-04T05:03:22;92529.56;;;7.32;87.73
64602;BME280;51013;42.630;23.192;2022-10-04T05:05:53;92565.97;;;7.54;87.98
64602;BME280;51013;42.630;23.192;2022-10-04T05:08:24;92662.25;;;8.26;88.33
64602;BME280;51013;42.630;23.192;2022-10-04T05:11:01;92650.06;;;8.21;88.12
64602;BME280;51013;42.630;23.192;2022-10-04T05:13:35;92597.59;;;7.70;88.38
64602;BME280;51013;42.630;23.192;2022-10-04T05:16:09;92602.06;;;7.70;88.84
64602;BME280;51013;42.630;23.192;2022-10-04T05:18:39;92677.25;;;7.99;89.31
64602;BME280;51013;42.630;23.192;2022-10-04T05:21:11;92671.88;;;7.95;89.14
64602;BME280;51013;42.630;23.192;2022-10-04T05:23:40;92683.41;;;8.03;89.12
64602;BME280;51013;42.630;23.192;2022-10-04T05:26:10;92674.88;;;8.15;89.57
64602;BME280;51013;42.630;23.192;2022-10-04T05:28:39;92640.81;;;7.76;90.18
64602;BME280;51013;42.630;23.192;2022-10-04T05:31:31;92584.28;;;7.37;90.25
64602;BME280;51013;42.630;23.192;2022-10-04T05:34:13;92682.91;;;8.10;90.25
64602;BME280;51013;42.630;23.192;2022-10-04T05:37:02;92603.03;;;7.48;91.10
64602;BME280;51013;42.630;23.192;2022-10-04T05:39:38;92688.91;;;8.10;91.23
64602;BME280;51013;42.630;23.192;2022-10-04T05:42:15;92520.41;;;6.91;91.24
64602;BME280;51013;42.630;23.192;2022-10-04T05:44:49;92687.50;;;8.13;91.80
64602;BME280;51013;42.630;23.192;2022-10-04T05:47:18;92666.00;;;7.98;92.01
64602;BME280;51013;42.630;23.192;2022-10-04T05:49:50;92692.63;;;8.09;92.41
64602;BME280;51013;42.630;23.192;2022-10-04T05:52:26;92691.22;;;8.12;93.21
64602;BME280;51013;42.630;23.192;2022-10-04T05:55:15;92697.53;;;8.19;93.40
64602;BME280;51013;42.630;23.192;2022-10-04T05:57:53;92705.81;;;8.21;92.79
64602;BME280;51013;42.630;23.192;2022-10-04T06:00:34;92634.22;;;7.79;91.47
64602;BME280;51013;42.630;23.192;2022-10-04T06:03:24;92665.84;;;8.03;91.98
64602;BME280;51013;42.630;23.192;2022-10-04T06:05:55;92715.16;;;8.31;91.63
64602;BME280;51013;42.630;23.192;2022-10-04T06:08:35;92588.47;;;7.12;91.19
64602;BME280;51013;42.630;23.192;2022-10-04T06:11:16;92719.81;;;8.17;91.83
64602;BME280;51013;42.630;23.192;2022-10-04T06:14:02;92722.13;;;8.18;92.31
64602;BME280;51013;42.630;23.192;2022-10-04T06:16:47;92720.59;;;8.26;92.31
64602;BME280;51013;42.630;23.192;2022-10-04T06:19:49;92728.59;;;8.30;92.96
64602;BME280;51013;42.630;23.192;2022-10-04T06:22:21;92731.47;;;8.37;92.83
64602;BME280;51013;42.630;23.192;2022-10-04T06:24:54;92741.97;;;8.46;91.33
64602;BME280;51013;42.630;23.192;2022-10-04T06:27:27;92748.88;;;8.50;91.72
64602;BME280;51013;42.630;23.192;2022-10-04T06:30:01;92599.31;;;7.57;91.63
64602;BME280;51013;42.630;23.192;2022-10-04T06:35:59;92752.69;;;8.70;86.14
64602;BME280;51013;42.630;23.192;2022-10-04T06:38:55;92757.41;;;8.77;88.09
64602;BME280;51013;42.630;23.192;2022-10-04T06:41:54;92493.03;;;7.14;87.33
64602;BME280;51013;42.630;23.192;2022-10-04T06:44:46;92766.44;;;8.97;86.53
64602;BME280;51013;42.630;23.192;2022-10-04T06:47:29;92766.56;;;9.00;85.73
64602;BME280;51013;42.630;23.192;2022-10-04T06:50:10;92763.16;;;9.09;83.71
64602;BME280;51013;42.630;23.192;2022-10-04T06:52:54;92678.00;;;8.55;81.73
64602;BME280;51013;42.630;23.192;2022-10-04T06:55:36;92685.16;;;8.76;82.57
64602;BME280;51013;42.630;23.192;2022-10-04T07:01:18;92765.88;;;9.42;82.99
64602;BME280;51013;42.630;23.192;2022-10-04T07:03:53;92768.00;;;9.49;78.16
64602;BME280;51013;42.630;23.192;2022-10-04T07:06:25;92657.72;;;8.82;77.50
64602;BME280;51013;42.630;23.192;2022-10-04T07:08:55;92766.09;;;9.58;79.67
64602;BME280;51013;42.630;23.192;2022-10-04T07:11:30;92775.13;;;9.69;81.30
64602;BME280;51013;42.630;23.192;2022-10-04T07:13:58;92770.00;;;9.73;83.30
64602;BME280;51013;42.630;23.192;2022-10-04T07:16:37;92777.28;;;9.88;83.86
64602;BME280;51013;42.630;23.192;2022-10-04T07:19:29;92770.31;;;9.92;78.94
64602;BME280;51013;42.630;23.192;2022-10-04T07:22:02;92421.63;;;7.70;77.44
64602;BME280;51013;42.630;23.192;2022-10-04T07:24:45;92649.81;;;9.33;79.48
64602;BME280;51013;42.630;23.192;2022-10-04T07:27:20;92608.00;;;9.15;78.59
64602;BME280;51013;42.630;23.192;2022-10-04T07:29:53;92683.75;;;9.71;78.13
64602;BME280;51013;42.630;23.192;2022-10-04T07:32:22;92777.41;;;10.46;75.90
64602;BME280;51013;42.630;23.192;2022-10-04T07:34:54;92782.75;;;10.37;75.20
64602;BME280;51013;42.630;23.192;2022-10-04T07:37:26;92785.97;;;10.43;74.71
64602;BME280;51013;42.630;23.192;2022-10-04T07:39:58;92781.09;;;10.66;74.45
64602;BME280;51013;42.630;23.192;2022-10-04T07:42:30;92705.88;;;10.16;74.32
64602;BME280;51013;42.630;23.192;2022-10-04T07:45:10;92790.28;;;10.60;75.33
64602;BME280;51013;42.630;23.192;2022-10-04T07:47:39;92796.50;;;10.55;74.96
64602;BME280;51013;42.630;23.192;2022-10-04T07:50:20;92800.50;;;10.40;74.76
64602;BME280;51013;42.630;23.192;2022-10-04T07:52:55;92796.06;;;10.53;74.99
64602;BME280;51013;42.630;23.192;2022-10-04T07:55:36;92816.19;;;10.49;75.43
64602;BME280;51013;42.630;23.192;2022-10-04T07:58:22;92790.69;;;10.50;74.97
64602;BME280;51013;42.630;23.192;2022-10-04T08:00:58;92789.16;;;10.49;77.29
64602;BME280;51013;42.630;23.192;2022-10-04T08:03:37;92800.63;;;10.44;75.71
64602;BME280;51013;42.630;23.192;2022-10-04T08:06:15;92793.00;;;10.51;77.91
64602;BME280;51013;42.630;23.192;2022-10-04T08:08:56;92782.56;;;10.42;76.91
64602;BME280;51013;42.630;23.192;2022-10-04T08:11:36;92742.34;;;9.96;75.82
64602;BME280;51013;42.630;23.192;2022-10-04T08:14:17;92799.34;;;10.29;76.10
64602;BME280;51013;42.630;23.192;2022-10-04T08:16:57;92800.16;;;10.42;77.32
64602;BME280;51013;42.630;23.192;2022-10-04T08:19:42;92795.63;;;10.51;78.72
64602;BME280;51013;42.630;23.192;2022-10-04T08:22:21;92800.47;;;10.61;76.82
64602;BME280;51013;42.630;23.192;2022-10-04T08:25:00;92807.13;;;10.59;76.30
64602;BME280;51013;42.630;23.192;2022-10-04T08:27:49;92729.75;;;9.90;73.66
64602;BME280;51013;42.630;23.192;2022-10-04T08:30:42;92740.53;;;10.09;74.09
64602;BME280;51013;42.630;23.192;2022-10-04T08:33:22;92670.69;;;9.62;73.77
64602;BME280;51013;42.630;23.192;2022-10-04T08:36:01;92792.44;;;10.58;69.83
64602;BME280;51013;42.630;23.192;2022-10-04T08:38:43;92576.91;;;9.26;69.41
64602;BME280;51013;42.630;23.192;2022-10-04T08:57:31;92799.34;;;11.33;69.67
64602;BME280;51013;42.630;23.192;2022-10-04T09:00:11;92791.88;;;11.22;70.74
64602;BME280;51013;42.630;23.192;2022-10-04T09:02:57;92786.63;;;11.22;70.68
64602;BME280;51013;42.630;23.192;2022-10-04T09:11:39;92807.03;;;11.26;70.82
64602;BME280;51013;42.630;23.192;2022-10-04T09:14:43;92698.09;;;10.53;67.31
64602;BME280;51013;42.630;23.192;2022-10-04T09:17:20;92812.16;;;11.34;68.30
64602;BME280;51013;42.630;23.192;2022-10-04T09:19:54;92725.91;;;10.91;69.76
64602;BME280;51013;42.630;23.192;2022-10-04T09:22:41;92750.38;;;11.03;67.96
64602;BME280;51013;42.630;23.192;2022-10-04T09:25:43;92810.19;;;11.68;68.51
64602;BME280;51013;42.630;23.192;2022-10-04T09:28:22;92802.81;;;11.86;68.86
64602;BME280;51013;42.630;23.192;2022-10-04T09:31:24;92800.88;;;12.11;66.59
64602;BME280;51013;42.630;23.192;2022-10-04T09:34:02;92800.81;;;12.36;68.12
64602;BME280;51013;42.630;23.192;2022-10-04T09:37:02;92805.34;;;12.51;64.89
64602;BME280;51013;42.630;23.192;2022-10-04T09:40:20;92782.63;;;12.47;64.23
64602;BME280;51013;42.630;23.192;2022-10-04T09:43:05;92803.09;;;12.66;62.98
64602;BME280;51013;42.630;23.192;2022-10-04T09:45:54;92723.75;;;12.11;62.99
64602;BME280;51013;42.630;23.192;2022-10-04T09:48:35;92792.84;;;12.48;62.57
64602;BME280;51013;42.630;23.192;2022-10-04T09:51:29;92795.72;;;12.43;62.64
64602;BME280;51013;42.630;23.192;2022-10-04T09:57:16;92794.22;;;12.58;63.35
64602;BME280;51013;42.630;23.192;2022-10-04T10:00:05;92798.34;;;12.71;64.48
64602;BME280;51013;42.630;23.192;2022-10-04T10:02:51;92676.53;;;11.90;62.14
64602;BME280;51013;42.630;23.192;2022-10-04T10:05:47;92796.06;;;12.86;64.06
64602;BME280;51013;42.630;23.192;2022-10-04T10:08:25;92764.91;;;12.91;65.41
64602;BME280;51013;42.630;23.192;2022-10-04T10:11:09;92782.44;;;13.15;62.04
64602;BME280;51013;42.630;23.192;2022-10-04T10:14:31;92766.38;;;13.05;61.67
64602;BME280;51013;42.630;23.192;2022-10-04T10:17:11;92784.50;;;13.22;61.31
64602;BME280;51013;42.630;23.192;2022-10-04T10:20:09;92785.94;;;13.03;60.85
64602;BME280;51013;42.630;23.192;2022-10-04T10:22:59;92787.38;;;13.01;62.57
64602;BME280;51013;42.630;23.192;2022-10-04T10:25:39;92726.56;;;12.62;61.39
64602;BME280;51013;42.630;23.192;2022-10-04T10:28:29;92789.78;;;13.06;57.44
64602;BME280;51013;42.630;23.192;2022-10-04T10:31:19;92752.44;;;12.88;62.20
64602;BME280;51013;42.630;23.192;2022-10-04T10:37:06;92787.38;;;13.17;62.32
64602;BME280;51013;42.630;23.192;2022-10-04T10:39:59;92789.41;;;13.23;61.59
64602;BME280;51013;42.630;23.192;2022-10-04T10:45:38;92791.91;;;13.16;62.85
64602;BME280;51013;42.630;23.192;2022-10-04T10:48:13;92759.56;;;13.03;65.35
64602;BME280;51013;42.630;23.192;2022-10-04T10:50:52;92797.00;;;13.41;63.57
64602;BME280;51013;42.630;23.192;2022-10-04T10:56:33;92795.97;;;13.46;64.77
64602;BME280;51013;42.630;23.192;2022-10-04T10:59:36;92799.31;;;13.42;63.11
64602;BME280;51013;42.630;23.192;2022-10-04T11:02:33;92695.34;;;12.64;61.93
64602;BME280;51013;42.630;23.192;2022-10-04T11:05:22;92744.84;;;13.02;63.18
64602;BME280;51013;42.630;23.192;2022-10-04T11:07:54;92802.38;;;13.45;62.07
64602;BME280;51013;42.630;23.192;2022-10-04T11:10:39;92742.72;;;13.08;62.18
64602;BME280;51013;42.630;23.192;2022-10-04T11:16:28;92798.97;;;13.44;60.88
64602;BME280;51013;42.630;23.192;2022-10-04T11:26:18;92813.75;;;13.65;62.51
64602;BME280;51013;42.630;23.192;2022-10-04T11:28:53;92761.88;;;13.37;61.09
64602;BME280;51013;42.630;23.192;2022-10-04T11:31:37;92816.13;;;13.70;62.76
64602;BME280;51013;42.630;23.192;2022-10-04T11:37:17;92823.09;;;13.78;60.06
64602;BME280;51013;42.630;23.192;2022-10-04T11:40:07;92815.06;;;13.90;60.69
64602;BME280;51013;42.630;23.192;2022-10-04T11:42:50;92818.16;;;13.76;60.20
64602;BME280;51013;42.630;23.192;2022-10-04T11:45:31;92815.03;;;13.71;60.94
64602;BME280;51013;42.630;23.192;2022-10-04T11:48:14;92750.22;;;13.22;60.98
64602;BME280;51013;42.630;23.192;2022-10-04T11:51:05;92819.00;;;13.80;63.10
64602;BME280;51013;42.630;23.192;2022-10-04T11:53:52;92824.28;;;13.80;60.18
64602;BME280;51013;42.630;23.192;2022-10-04T11:56:31;92822.63;;;13.92;60.18
64602;BME280;51013;42.630;23.192;2022-10-04T11:59:13;92821.75;;;14.03;60.05
64602;BME280;51013;42.630;23.192;2022-10-04T12:02:09;92821.91;;;14.11;62.30
64602;BME280;51013;42.630;23.192;2022-10-04T12:07:44;92787.69;;;13.98;58.38
64602;BME280;51013;42.630;23.192;2022-10-04T12:10:22;92822.41;;;14.36;57.62
64602;BME280;51013;42.630;23.192;2022-10-04T12:13:01;92834.44;;;14.53;59.49
64602;BME280;51013;42.630;23.192;2022-10-04T12:16:25;92821.66;;;14.74;57.48
64602;BME280;51013;42.630;23.192;2022-10-04T12:31:19;92757.50;;;14.38;55.13
64602;BME280;51013;42.630;23.192;2022-10-04T12:33:52;92793.44;;;14.82;54.57
64602;BME280;51013;42.630;23.192;2022-10-04T12:36:35;92782.56;;;14.87;56.49
64602;BME280;51013;42.630;23.192;2022-10-04T12:42:12;92709.28;;;14.45;55.96
64602;BME280;51013;42.630;23.192;2022-10-04T12:44:56;92820.75;;;15.09;55.67
64602;BME280;51013;42.630;23.192;2022-10-04T12:47:45;92831.31;;;15.09;54.87
64602;BME280;51013;42.630;23.192;2022-10-04T12:50:24;92820.16;;;15.19;56.66
64602;BME280;51013;42.630;23.192;2022-10-04T12:52:58;92771.34;;;14.94;58.84
64602;BME280;51013;42.630;23.192;2022-10-04T12:55:48;92780.47;;;14.96;55.78
64602;BME280;51013;42.630;23.192;2022-10-04T12:58:25;92792.31;;;15.06;56.64
64602;BME280;51013;42.630;23.192;2022-10-04T13:01:02;92769.41;;;14.91;54.45
64602;BME280;51013;42.630;23.192;2022-10-04T13:03:53;92819.97;;;15.32;54.34
64602;BME280;51013;42.630;23.192;2022-10-04T13:06:30;92793.88;;;15.07;54.44
64602;BME280;51013;42.630;23.192;2022-10-04T13:09:08;92790.09;;;15.08;54.15
64602;BME280;51013;42.630;23.192;2022-10-04T13:11:56;92813.59;;;15.59;56.05
64602;BME280;51013;42.630;23.192;2022-10-04T13:14:35;92764.00;;;15.83;52.79
64602;BME280;51013;42.630;23.192;2022-10-04T13:17:12;92682.63;;;15.53;51.86
64602;BME280;51013;42.630;23.192;2022-10-04T13:19:49;92818.19;;;16.50;51.94
64602;BME280;51013;42.630;23.192;2022-10-04T13:22:28;92757.94;;;16.13;52.33
64602;BME280;51013;42.630;23.192;2022-10-04T13:25:13;92810.25;;;16.50;50.22
64602;BME280;51013;42.630;23.192;2022-10-04T13:27:45;92734.28;;;15.97;50.32
64602;BME280;51013;42.630;23.192;2022-10-04T13:30:20;92752.59;;;16.09;52.02
64602;BME280;51013;42.630;23.192;2022-10-04T13:32:59;92807.31;;;16.58;49.71
64602;BME280;51013;42.630;23.192;2022-10-04T13:35:32;92683.44;;;15.57;49.33
64602;BME280;51013;42.630;23.192;2022-10-04T13:38:21;92758.97;;;16.05;51.35
64602;BME280;51013;42.630;23.192;2022-10-04T13:41:02;92744.88;;;15.97;51.65
64602;BME280;51013;42.630;23.192;2022-10-04T13:43:45;92808.25;;;16.39;50.85
64602;BME280;51013;42.630;23.192;2022-10-04T13:46:24;92809.22;;;16.24;49.56
64602;BME280;51013;42.630;23.192;2022-10-04T13:51:57;92814.28;;;16.06;49.67
64602;BME280;51013;42.630;23.192;2022-10-04T13:54:50;92826.56;;;15.91;51.27
64602;BME280;51013;42.630;23.192;2022-10-04T13:57:41;92832.22;;;15.67;50.71
64602;BME280;51013;42.630;23.192;2022-10-04T14:00:18;92834.97;;;15.47;52.33
64602;BME280;51013;42.630;23.192;2022-10-04T14:06:16;92846.03;;;15.07;52.78
64602;BME280;51013;42.630;23.192;2022-10-04T14:08:57;92817.19;;;14.78;53.20
64602;BME280;51013;42.630;23.192;2022-10-04T14:14:55;92853.84;;;14.80;52.83
64602;BME280;51013;42.630;23.192;2022-10-04T14:17:51;92835.19;;;14.53;54.07
64602;BME280;51013;42.630;23.192;2022-10-04T14:21:06;92857.78;;;14.67;54.68
64602;BME280;51013;42.630;23.192;2022-10-04T14:24:22;92762.53;;;13.85;55.40
64602;BME280;51013;42.630;23.192;2022-10-04T14:30:16;92800.81;;;13.95;54.02
64602;BME280;51013;42.630;23.192;2022-10-04T14:33:27;92869.63;;;14.37;54.79
64602;BME280;51013;42.630;23.192;2022-10-04T14:36:35;92850.34;;;14.17;56.39
64602;BME280;51013;42.630;23.192;2022-10-04T14:39:34;92872.47;;;14.29;54.88
64602;BME280;51013;42.630;23.192;2022-10-04T14:45:07;92630.22;;;12.65;57.03
64602;BME280;51013;42.630;23.192;2022-10-04T14:48:00;92876.22;;;14.28;58.71
64602;BME280;51013;42.630;23.192;2022-10-04T14:50:45;92821.31;;;13.66;56.28
64602;BME280;51013;42.630;23.192;2022-10-04T14:53:21;92884.31;;;13.99;57.60
64602;BME280;51013;42.630;23.192;2022-10-04T14:59:07;92870.94;;;13.92;57.67
64602;BME280;51013;42.630;23.192;2022-10-04T15:02:03;92717.13;;;12.77;59.49
64602;BME280;51013;42.630;23.192;2022-10-04T15:04:36;92786.78;;;13.08;57.26
64602;BME280;51013;42.630;23.192;2022-10-04T15:07:16;92838.28;;;13.33;58.17
64602;BME280;51013;42.630;23.192;2022-10-04T15:09:54;92648.47;;;12.10;59.07
64602;BME280;51013;42.630;23.192;2022-10-04T15:12:42;92882.13;;;13.54;57.43
64602;BME280;51013;42.630;23.192;2022-10-04T15:18:29;92841.63;;;13.30;61.11
64602;BME280;51013;42.630;23.192;2022-10-04T15:21:01;92912.34;;;13.72;61.19
64602;BME280;51013;42.630;23.192;2022-10-04T15:23:38;92673.97;;;12.06;58.69
64602;BME280;51013;42.630;23.192;2022-10-04T15:26:39;92918.91;;;13.78;60.24
64602;BME280;51013;42.630;23.192;2022-10-04T15:29:14;92920.22;;;13.69;56.13
64602;BME280;51013;42.630;23.192;2022-10-04T15:31:52;92924.13;;;13.59;56.96
64602;BME280;51013;42.630;23.192;2022-10-04T15:34:31;92793.75;;;12.84;57.05